createdAt,value
2019-04-30T00:01:48.570Z,18.52
2019-04-30T00:04:15.900Z,21.00
2019-04-30T00:06:45.384Z,21.30
2019-04-30T00:09:18.917Z,19.23
2019-04-30T00:11:46.099Z,17.92
2019-04-30T00:14:15.244Z,18.75
2019-04-30T00:16:45.128Z,18.42
2019-04-30T00:19:15.756Z,16.62
2019-04-30T00:21:50.097Z,17.50
2019-04-30T00:24:15.748Z,19.35
2019-04-30T00:26:44.993Z,21.05
2019-04-30T00:29:19.158Z,18.30
2019-04-30T00:31:44.672Z,19.25
2019-04-30T00:34:15.172Z,22.17
2019-04-30T00:36:43.542Z,22.60
2019-04-30T00:39:13.215Z,21.97
2019-04-30T00:41:45.940Z,21.97
2019-04-30T00:44:11.570Z,21.65
2019-04-30T00:46:40.054Z,23.77
2019-04-30T00:49:11.187Z,20.23
2019-04-30T00:51:38.164Z,18.62
2019-04-30T00:54:06.360Z,19.35
2019-04-30T00:56:35.546Z,18.70
2019-04-30T00:59:08.236Z,21.52
2019-04-30T01:01:39.056Z,22.30
2019-04-30T01:04:09.935Z,20.40
2019-04-30T01:06:38.110Z,19.80
2019-04-30T01:09:08.629Z,20.62
2019-04-30T01:11:39.783Z,20.72
2019-04-30T01:14:06.666Z,20.05
2019-04-30T01:16:34.852Z,22.50
2019-04-30T01:19:05.661Z,22.50
2019-04-30T01:21:32.946Z,19.37
2019-04-30T01:24:01.142Z,20.55
2019-04-30T01:26:31.027Z,19.05
2019-04-30T01:29:02.068Z,18.55
2019-04-30T01:31:36.938Z,21.35
2019-04-30T01:34:00.261Z,20.10
2019-04-30T01:36:29.374Z,19.67
2019-04-30T01:38:59.294Z,20.72
2019-04-30T01:41:31.315Z,20.95
2019-04-30T01:43:58.485Z,20.20
2019-04-30T01:46:26.799Z,18.98
2019-04-30T01:48:55.001Z,19.40
2019-04-30T01:51:23.522Z,21.80
2019-04-30T01:53:51.749Z,21.87
2019-04-30T01:56:21.913Z,20.68
2019-04-30T01:58:51.738Z,22.30
2019-04-30T02:01:24.098Z,20.50
2019-04-30T02:03:52.581Z,20.80
2019-04-30T02:06:20.778Z,20.00
2019-04-30T02:08:49.369Z,19.35
2019-04-30T02:11:18.978Z,20.72
2019-04-30T02:13:49.194Z,18.73
2019-04-30T02:16:18.755Z,18.45
2019-04-30T02:18:49.459Z,19.85
2019-04-30T02:21:19.524Z,17.75
2019-04-30T02:23:49.303Z,20.37
2019-04-30T02:26:18.774Z,20.92
2019-04-30T02:28:49.386Z,18.40
2019-04-30T02:31:22.327Z,20.72
2019-04-30T02:33:50.293Z,17.90
2019-04-30T02:36:32.311Z,20.85
2019-04-30T02:39:02.632Z,20.05
2019-04-30T02:41:31.041Z,21.77
2019-04-30T02:43:59.810Z,18.77
2019-04-30T02:46:31.997Z,19.23
2019-04-30T02:48:59.799Z,17.48
2019-04-30T02:51:29.954Z,19.55
2019-04-30T02:54:12.930Z,19.27
2019-04-30T02:56:42.767Z,17.95
2019-04-30T02:59:11.208Z,20.37
2019-04-30T03:01:40.248Z,19.27
2019-04-30T03:04:09.860Z,18.40
2019-04-30T03:06:40.188Z,19.73
2019-04-30T03:09:10.344Z,19.95
2019-04-30T03:11:40.586Z,22.48
2019-04-30T03:14:10.245Z,21.40
2019-04-30T03:16:43.470Z,18.37
2019-04-30T03:19:25.280Z,18.87
2019-04-30T03:22:00.170Z,19.25
2019-04-30T03:24:29.534Z,21.82
2019-04-30T03:26:59.457Z,21.70
2019-04-30T03:29:30.257Z,22.85
2019-04-30T03:32:02.066Z,19.30
2019-04-30T03:34:31.829Z,20.05
2019-04-30T03:37:01.685Z,21.10
2019-04-30T03:39:29.733Z,24.20
2019-04-30T03:41:59.676Z,23.77
2019-04-30T03:44:31.563Z,20.35
2019-04-30T03:46:59.310Z,20.15
2019-04-30T03:49:29.840Z,19.23
2019-04-30T03:51:59.806Z,20.30
2019-04-30T03:54:29.251Z,19.50
2019-04-30T03:57:00.625Z,20.17
2019-04-30T03:59:30.106Z,18.85
2019-04-30T04:02:06.233Z,21.23
2019-04-30T04:04:39.666Z,20.60
2019-04-30T04:07:10.209Z,20.77
2019-04-30T04:09:59.824Z,16.90
2019-04-30T04:12:30.253Z,19.90
2019-04-30T04:15:03.266Z,19.75
2019-04-30T04:17:31.293Z,21.45
2019-04-30T04:19:59.866Z,19.42
2019-04-30T04:22:30.602Z,18.60
2019-04-30T04:25:00.054Z,17.70
2019-04-30T04:27:30.077Z,19.65
2019-04-30T04:30:01.095Z,19.52
2019-04-30T04:32:30.885Z,19.65
2019-04-30T04:35:00.170Z,20.85
2019-04-30T04:37:30.105Z,21.45
2019-04-30T04:39:59.561Z,20.72
2019-04-30T04:42:30.003Z,22.02
2019-04-30T04:44:59.486Z,21.27
2019-04-30T04:47:30.871Z,20.82
2019-04-30T04:50:00.653Z,19.65
2019-04-30T04:52:31.616Z,18.05
2019-04-30T04:55:00.451Z,17.50
2019-04-30T04:57:30.508Z,16.05
2019-04-30T05:00:03.489Z,16.30
2019-04-30T05:02:46.328Z,13.50
2019-04-30T05:05:14.508Z,15.43
2019-04-30T05:07:42.746Z,17.05
2019-04-30T05:10:11.889Z,16.20
2019-04-30T05:12:40.412Z,14.50
2019-04-30T05:15:09.546Z,15.05
2019-04-30T05:17:39.765Z,13.80
2019-04-30T05:20:09.994Z,13.88
2019-04-30T05:22:39.021Z,13.03
2019-04-30T05:25:08.802Z,12.75
2019-04-30T05:27:39.077Z,10.98
2019-04-30T05:30:09.729Z,12.33
2019-04-30T05:32:39.086Z,9.25
2019-04-30T05:35:09.562Z,9.70
2019-04-30T05:37:38.470Z,9.95
2019-04-30T05:40:09.117Z,9.20
2019-04-30T05:42:38.518Z,9.60
2019-04-30T05:45:09.370Z,8.18
2019-04-30T05:47:38.874Z,8.80
2019-04-30T05:50:08.977Z,8.70
2019-04-30T05:52:39.501Z,8.75
2019-04-30T05:55:08.566Z,8.33
2019-04-30T05:57:36.983Z,8.20
2019-04-30T06:00:09.308Z,7.90
2019-04-30T06:02:37.145Z,11.55
2019-04-30T06:05:06.276Z,10.38
2019-04-30T06:07:34.760Z,9.75
2019-04-30T06:10:04.885Z,10.00
2019-04-30T06:12:52.821Z,9.35
2019-04-30T06:15:29.108Z,9.58
2019-04-30T06:18:01.801Z,9.30
2019-04-30T06:20:28.783Z,8.80
2019-04-30T06:22:57.134Z,9.43
2019-04-30T06:25:32.393Z,8.85
2019-04-30T06:27:55.311Z,9.08
2019-04-30T06:30:23.946Z,8.50
2019-04-30T06:32:52.125Z,9.15
2019-04-30T06:35:20.621Z,10.43
2019-04-30T06:37:49.106Z,10.25
2019-04-30T06:40:19.631Z,9.70
2019-04-30T06:42:49.338Z,8.45
2019-04-30T06:45:19.173Z,8.53
2019-04-30T06:47:48.937Z,7.53
2019-04-30T06:50:19.211Z,6.92
2019-04-30T06:52:56.215Z,6.85
2019-04-30T06:55:19.109Z,6.30
2019-04-30T06:57:47.040Z,7.35
2019-04-30T07:00:15.239Z,6.17
2019-04-30T07:02:43.423Z,6.40
2019-04-30T07:05:12.035Z,5.53
2019-04-30T07:07:41.897Z,6.35
2019-04-30T07:10:17.008Z,7.42
2019-04-30T07:12:49.162Z,6.90
2019-04-30T07:15:19.529Z,7.40
2019-04-30T07:17:49.155Z,7.85
2019-04-30T07:20:19.147Z,6.72
2019-04-30T07:22:52.543Z,5.62
2019-04-30T07:25:19.519Z,5.00
2019-04-30T07:27:50.565Z,4.80
2019-04-30T07:30:19.224Z,4.15
2019-04-30T07:32:48.769Z,4.87
2019-04-30T07:35:19.442Z,4.33
2019-04-30T07:37:49.522Z,4.95
2019-04-30T07:40:19.047Z,6.25
2019-04-30T07:42:49.309Z,5.95
2019-04-30T07:45:19.426Z,5.03
2019-04-30T07:47:49.507Z,4.87
2019-04-30T07:50:20.797Z,4.60
2019-04-30T07:53:01.979Z,4.85
2019-04-30T07:55:19.583Z,5.10
2019-04-30T07:57:50.557Z,5.20
2019-04-30T08:00:19.413Z,5.62
2019-04-30T08:02:50.453Z,6.72
2019-04-30T08:05:20.427Z,5.62
2019-04-30T08:07:49.102Z,6.25
2019-04-30T08:10:18.765Z,5.62
2019-04-30T08:12:49.990Z,5.80
2019-04-30T08:15:19.193Z,5.60
2019-04-30T08:18:01.661Z,5.70
2019-04-30T08:20:19.491Z,5.87
2019-04-30T08:22:49.396Z,5.37
2019-04-30T08:25:19.933Z,8.05
2019-04-30T08:27:49.268Z,5.08
2019-04-30T08:30:26.045Z,5.85
2019-04-30T08:32:49.983Z,4.92
2019-04-30T08:35:19.705Z,4.78
2019-04-30T08:37:49.659Z,4.50
2019-04-30T08:40:20.959Z,4.83
2019-04-30T08:42:49.690Z,4.53
2019-04-30T08:45:19.698Z,4.30
2019-04-30T08:47:49.354Z,3.80
2019-04-30T08:50:19.595Z,3.80
2019-04-30T08:52:49.752Z,3.08
2019-04-30T08:55:19.747Z,3.33
2019-04-30T08:57:49.859Z,3.22
2019-04-30T09:00:19.539Z,3.40
2019-04-30T09:02:49.187Z,2.98
2019-04-30T09:05:19.439Z,3.98
2019-04-30T09:07:48.676Z,3.52
2019-04-30T09:10:19.254Z,3.60
2019-04-30T09:12:49.616Z,3.77
2019-04-30T09:15:18.836Z,3.40
2019-04-30T09:18:00.308Z,3.60
2019-04-30T09:20:19.303Z,3.80
2019-04-30T09:22:47.325Z,4.95
2019-04-30T09:25:15.961Z,3.95
2019-04-30T09:27:44.134Z,4.35
2019-04-30T09:30:12.311Z,3.70
2019-04-30T09:32:40.494Z,3.98
2019-04-30T09:35:09.562Z,2.90
2019-04-30T09:37:39.414Z,3.42
2019-04-30T09:40:16.131Z,3.35
2019-04-30T09:42:39.078Z,3.83
2019-04-30T09:45:08.806Z,3.85
2019-04-30T09:47:37.047Z,2.80
2019-04-30T09:50:06.248Z,3.08
2019-04-30T09:52:36.112Z,2.70
2019-04-30T09:55:06.188Z,2.33
2019-04-30T09:57:34.683Z,2.40
2019-04-30T10:00:03.979Z,2.90
2019-04-30T10:02:32.438Z,2.67
2019-04-30T10:05:01.026Z,3.15
2019-04-30T10:07:29.811Z,3.20
2019-04-30T10:09:59.090Z,2.77
2019-04-30T10:12:29.414Z,3.30
2019-04-30T10:14:59.255Z,2.90
2019-04-30T10:17:32.235Z,3.37
2019-04-30T10:20:00.411Z,3.12
2019-04-30T10:22:28.597Z,3.12
2019-04-30T10:24:56.780Z,3.22
2019-04-30T10:27:25.684Z,2.47
2019-04-30T10:29:54.131Z,2.90
2019-04-30T10:32:22.313Z,2.80
2019-04-30T10:34:50.793Z,2.50
2019-04-30T10:37:19.275Z,3.00
2019-04-30T10:39:48.994Z,2.65
2019-04-30T10:42:17.430Z,2.98
2019-04-30T10:44:45.610Z,3.00
2019-04-30T10:47:14.426Z,3.22
2019-04-30T10:49:42.616Z,3.52
2019-04-30T10:52:10.794Z,3.40
2019-04-30T10:54:39.109Z,3.47
2019-04-30T10:57:08.690Z,3.58
2019-04-30T10:59:37.167Z,4.50
2019-04-30T11:02:05.431Z,4.37
2019-04-30T11:04:33.902Z,3.87
2019-04-30T11:07:02.085Z,3.65
2019-04-30T11:09:31.172Z,4.58
2019-04-30T11:12:02.697Z,4.15
2019-04-30T11:14:30.118Z,3.70
2019-04-30T11:16:59.892Z,3.58
2019-04-30T14:16:47.228Z,6.95
2019-04-30T14:22:57.581Z,8.18
2019-04-30T14:28:55.015Z,9.23
2019-04-30T14:31:23.202Z,9.58
2019-04-30T14:33:51.379Z,9.55
2019-04-30T14:36:19.571Z,8.48
2019-04-30T14:38:48.856Z,8.80
2019-04-30T14:41:17.808Z,6.75
2019-04-30T14:43:50.489Z,7.05
2019-04-30T14:46:22.561Z,6.85
2019-04-30T14:48:53.550Z,7.80
2019-04-30T14:51:22.453Z,7.15
2019-04-30T14:53:52.270Z,7.60
2019-04-30T14:56:24.817Z,7.62
2019-04-30T14:59:00.144Z,9.00
2019-04-30T15:01:32.615Z,8.65
2019-04-30T15:04:00.788Z,9.10
2019-04-30T15:06:29.279Z,8.70
2019-04-30T15:08:59.133Z,9.08
2019-04-30T15:11:28.874Z,9.70
2019-04-30T15:13:59.062Z,9.83
2019-04-30T15:16:26.981Z,9.25
2019-04-30T15:18:55.165Z,8.20
2019-04-30T15:21:23.658Z,9.33
2019-04-30T15:23:58.599Z,8.88
2019-04-30T15:26:25.126Z,9.35
2019-04-30T15:28:53.600Z,10.63
2019-04-30T15:31:22.081Z,8.75
2019-04-30T15:34:02.268Z,9.78
2019-04-30T15:36:22.109Z,9.58
2019-04-30T15:38:57.679Z,9.40
2019-04-30T15:41:26.146Z,10.00
2019-04-30T15:43:54.729Z,9.70
2019-04-30T15:46:23.626Z,10.35
2019-04-30T15:48:51.814Z,10.63
2019-04-30T15:51:19.994Z,10.82
2019-04-30T15:53:48.585Z,11.20
2019-04-30T15:56:16.761Z,11.40
2019-04-30T15:58:49.318Z,10.90
2019-04-30T16:01:19.176Z,10.75
2019-04-30T16:03:54.443Z,9.63
2019-04-30T16:06:22.945Z,10.88
2019-04-30T16:08:58.402Z,10.63
2019-04-30T16:11:37.258Z,11.38
2019-04-30T16:14:22.797Z,12.13
2019-04-30T16:16:52.617Z,12.65
2019-04-30T16:19:20.807Z,11.18
2019-04-30T16:21:48.985Z,11.33
2019-04-30T16:24:18.729Z,10.80
2019-04-30T16:26:50.611Z,10.93
2019-04-30T16:29:16.965Z,11.18
2019-04-30T16:31:45.444Z,11.85
2019-04-30T16:34:13.929Z,12.65
2019-04-30T16:36:42.414Z,14.35
2019-04-30T16:39:10.621Z,14.00
2019-04-30T16:41:40.747Z,12.23
2019-04-30T16:44:09.184Z,10.13
2019-04-30T16:46:39.481Z,11.38
2019-04-30T16:49:09.985Z,13.10
2019-04-30T16:51:38.594Z,12.00
2019-04-30T16:54:08.646Z,11.63
2019-04-30T16:56:38.656Z,10.90
2019-04-30T16:59:08.685Z,9.85
2019-04-30T17:01:36.860Z,10.82
2019-04-30T17:04:25.624Z,10.95
2019-04-30T17:06:55.759Z,11.35
2019-04-30T17:09:31.038Z,11.03
2019-04-30T17:12:00.857Z,10.75
2019-04-30T17:14:30.805Z,11.18
2019-04-30T17:16:59.823Z,10.93
2019-04-30T17:19:29.231Z,10.68
2019-04-30T17:21:57.518Z,10.25
2019-04-30T17:24:25.955Z,9.78
2019-04-30T17:26:54.446Z,11.45
2019-04-30T17:29:22.639Z,10.85
2019-04-30T17:31:50.816Z,14.93
2019-04-30T17:34:19.274Z,12.90
2019-04-30T17:36:49.449Z,10.80
2019-04-30T17:39:19.009Z,10.95
2019-04-30T17:41:47.553Z,11.73
2019-04-30T17:44:15.735Z,11.65
2019-04-30T17:46:43.907Z,11.05
2019-04-30T17:49:12.093Z,11.60
2019-04-30T17:51:40.276Z,10.78
2019-04-30T17:54:13.475Z,10.35
2019-04-30T17:56:42.601Z,11.73
2019-04-30T17:59:11.264Z,14.95
2019-04-30T18:01:41.095Z,11.78
2019-04-30T18:04:09.267Z,13.38
2019-04-30T18:06:37.453Z,12.10
2019-04-30T18:09:10.745Z,11.28
2019-04-30T18:11:39.619Z,12.95
2019-04-30T18:14:08.824Z,13.13
2019-04-30T18:16:38.687Z,12.88
2019-04-30T18:19:11.599Z,12.73
2019-04-30T18:21:48.578Z,12.68
2019-04-30T18:24:19.529Z,13.15
2019-04-30T18:27:01.628Z,11.97
2019-04-30T18:29:29.798Z,12.65
2019-04-30T18:31:59.843Z,12.20
2019-04-30T18:34:29.204Z,13.03
2019-04-30T18:36:59.327Z,12.68
2019-04-30T18:39:28.885Z,12.98
2019-04-30T18:41:57.288Z,13.72
2019-04-30T18:44:25.461Z,14.25
2019-04-30T18:46:53.987Z,13.32
2019-04-30T18:49:22.174Z,14.93
2019-04-30T18:51:50.355Z,14.23
2019-04-30T18:54:20.896Z,15.05
2019-04-30T18:56:49.005Z,15.53
2019-04-30T18:59:19.509Z,14.75
2019-04-30T19:01:47.437Z,13.88
2019-04-30T19:04:15.615Z,13.72
2019-04-30T19:06:43.801Z,16.05
2019-04-30T19:09:19.674Z,15.50
2019-04-30T19:11:52.817Z,14.03
2019-04-30T19:14:25.478Z,14.53
2019-04-30T19:17:01.038Z,14.33
2019-04-30T19:19:43.367Z,14.30
2019-04-30T19:22:11.552Z,15.63
2019-04-30T19:24:52.714Z,15.90
2019-04-30T19:27:09.641Z,15.75
2019-04-30T19:29:38.125Z,15.10
2019-04-30T19:32:06.322Z,16.20
2019-04-30T19:34:34.875Z,14.95
2019-04-30T19:37:03.482Z,14.65
2019-04-30T19:39:32.497Z,15.60
2019-04-30T19:42:01.018Z,14.95
2019-04-30T19:44:29.834Z,15.43
2019-04-30T19:46:58.591Z,15.58
2019-04-30T19:49:26.801Z,15.13
2019-04-30T19:52:07.597Z,14.87
2019-04-30T19:54:24.886Z,15.03
2019-04-30T19:56:53.292Z,13.78
2019-04-30T19:59:21.840Z,15.43
2019-04-30T20:01:50.195Z,15.35
2019-04-30T20:04:18.648Z,15.75
2019-04-30T20:06:48.763Z,15.78
2019-04-30T20:09:19.278Z,14.05
2019-04-30T20:11:49.307Z,16.02
2019-04-30T20:14:18.677Z,15.03
2019-04-30T20:16:48.667Z,15.20
2019-04-30T20:19:16.946Z,16.70
2019-04-30T20:21:50.740Z,15.38
2019-04-30T20:24:15.368Z,14.50
2019-04-30T20:26:43.544Z,13.30
2019-04-30T20:29:12.020Z,13.25
2019-04-30T20:31:40.499Z,12.45
2019-04-30T20:34:09.254Z,13.80
2019-04-30T20:36:38.885Z,13.95
2019-04-30T20:39:09.109Z,14.38
2019-04-30T20:41:37.281Z,14.30
2019-04-30T20:44:05.464Z,13.98
2019-04-30T20:46:35.325Z,15.25
2019-04-30T20:49:03.867Z,14.78
2019-04-30T20:51:32.040Z,16.30
2019-04-30T20:54:00.220Z,15.20
2019-04-30T20:56:29.170Z,14.85
2019-04-30T20:59:02.347Z,14.68
2019-04-30T21:01:29.419Z,15.58
2019-04-30T21:03:57.342Z,13.20
2019-04-30T21:06:25.752Z,13.25
2019-04-30T21:08:53.941Z,12.53
2019-04-30T21:11:22.459Z,12.82
2019-04-30T21:13:50.936Z,12.63
2019-04-30T21:16:19.421Z,13.48
2019-04-30T21:18:47.897Z,13.68
2019-04-30T21:21:18.610Z,12.58
2019-04-30T21:23:46.813Z,12.55
2019-04-30T21:26:14.993Z,13.60
2019-04-30T21:28:43.177Z,14.40
2019-04-30T21:31:31.104Z,14.47
2019-04-30T21:34:09.704Z,13.50
2019-04-30T21:36:39.555Z,13.22
2019-04-30T21:39:09.051Z,12.18
2019-04-30T21:41:39.448Z,13.60
2019-04-30T21:44:07.233Z,15.45
2019-04-30T21:46:37.102Z,19.27
2019-04-30T21:49:05.636Z,18.92
2019-04-30T21:51:33.811Z,18.65
2019-04-30T21:54:02.005Z,16.20
2019-04-30T21:56:30.458Z,12.98
2019-04-30T21:58:58.935Z,14.18
2019-04-30T22:01:27.107Z,14.68
2019-04-30T22:03:55.590Z,12.95
2019-04-30T22:06:23.769Z,13.88
2019-04-30T22:08:51.952Z,14.13
2019-04-30T22:11:20.121Z,14.80
2019-04-30T22:13:49.416Z,17.12
2019-04-30T22:16:20.072Z,14.65
2019-04-30T22:18:48.020Z,13.75
2019-04-30T22:21:16.205Z,13.62
2019-04-30T22:23:44.377Z,13.93
2019-04-30T22:26:12.698Z,18.27
2019-04-30T22:28:41.248Z,16.52
2019-04-30T22:31:09.536Z,16.95
2019-04-30T22:33:39.206Z,14.95
2019-04-30T22:36:10.924Z,16.20
2019-04-30T22:38:40.810Z,22.15
2019-04-30T22:41:08.995Z,17.80
2019-04-30T22:43:37.167Z,17.75
2019-04-30T22:46:06.994Z,19.57
2019-04-30T22:48:35.434Z,18.15
2019-04-30T22:51:03.622Z,19.05
2019-04-30T22:53:31.797Z,16.95
2019-04-30T22:56:00.268Z,19.12
2019-04-30T22:58:28.748Z,17.73
2019-04-30T23:01:01.530Z,18.55
2019-04-30T23:03:31.361Z,22.65
2019-04-30T23:05:59.529Z,25.12
2019-04-30T23:08:27.700Z,22.35
2019-04-30T23:10:56.177Z,23.45
2019-04-30T23:13:24.351Z,24.32
2019-04-30T23:15:54.450Z,23.20
2019-04-30T23:18:22.624Z,21.27
2019-04-30T23:20:51.178Z,20.40
2019-04-30T23:23:19.353Z,19.55
2019-04-30T23:25:47.540Z,21.05
2019-04-30T23:28:15.710Z,21.60
2019-04-30T23:30:43.919Z,20.12
2019-04-30T23:33:12.408Z,21.33
2019-04-30T23:35:40.591Z,21.97
2019-04-30T23:38:08.767Z,21.73
2019-04-30T23:40:51.094Z,21.27
2019-04-30T23:43:19.751Z,20.48
2019-04-30T23:45:48.094Z,24.12
2019-04-30T23:48:16.273Z,24.90
2019-04-30T23:50:44.445Z,22.27
2019-04-30T23:53:12.629Z,21.55
2019-04-30T23:55:40.803Z,21.02
2019-04-30T23:58:08.985Z,20.82
